Time;durP1;ratioP1;P1;durP2;ratioP2;P2;SDS_P1;SDS_P2;PMS_P1;PMS_P2;Temp;Humidity;BMP_temperature;BMP_pressure;BME280_temperature;BME280_humidity;BME280_pressure;Samples;Min_cycle;Max_cycle;Signal;HPM_P1;HPM_P2
2022/11/26 00:00:24;;;;;;;5.25;1.73;;;;;;;;;;5056220;28;20052;-70
2022/11/26 00:02:51;;;;;;;7.28;1.17;;;;;;;;;;5056425;28;20480;-70
2022/11/26 00:05:17;;;;;;;5.90;1.67;;;;;;;;;;5056553;28;20040;-70
2022/11/26 00:07:47;;;;;;;6.97;1.75;;;;;;;;;;5056477;28;20053;-70
2022/11/26 00:10:17;;;;;;;6.63;1.33;;;;;;;;;;5055963;28;20047;-70
2022/11/26 00:12:44;;;;;;;3.47;1.35;;;;;;;;;;5056184;28;20039;-70
2022/11/26 00:15:19;;;;;;;8.98;2.28;;;;;;;;;;5055867;28;20557;-70
2022/11/26 00:17:45;;;;;;;7.72;1.42;;;;;;;;;;5056267;28;20136;-70
2022/11/26 00:20:12;;;;;;;9.40;2.05;;;;;;;;;;5056513;28;20048;-70
2022/11/26 00:22:42;;;;;;;5.65;1.75;;;;;;;;;;5056080;28;20043;-70
2022/11/26 00:25:19;;;;;;;6.85;1.80;;;;;;;;;;5056141;28;20080;-70
2022/11/26 00:27:46;;;;;;;11.98;1.98;;;;;;;;;;5055718;28;20040;-70
2022/11/26 00:30:17;;;;;;;6.57;1.70;;;;;;;;;;5056581;28;20037;-70
2022/11/26 00:32:45;;;;;;;7.43;1.80;;;;;;;;;;5055623;28;20060;-70
2022/11/26 00:35:12;;;;;;;6.43;1.80;;;;;;;;;;5056152;28;20055;-70
2022/11/26 00:37:43;;;;;;;8.45;1.65;;;;;;;;;;5055793;28;20048;-70
2022/11/26 00:40:29;;;;;;;9.75;2.10;;;;;;;;;;5055903;28;20045;-70
2022/11/26 00:42:56;;;;;;;6.22;2.10;;;;;;;;;;5055377;28;20392;-70
2022/11/26 00:45:24;;;;;;;5.13;1.70;;;;;;;;;;5055276;28;20488;-70
2022/11/26 00:47:51;;;;;;;5.32;1.80;;;;;;;;;;5054436;28;20079;-70
2022/11/26 00:50:19;;;;;;;9.10;2.03;;;;;;;;;;5054977;28;20052;-70
2022/11/26 00:52:46;;;;;;;7.32;1.90;;;;;;;;;;5054965;28;20064;-70
2022/11/26 00:55:21;;;;;;;8.38;1.80;;;;;;;;;;5054464;28;20106;-70
2022/11/26 00:57:47;;;;;;;6.43;1.92;;;;;;;;;;5054649;28;20522;-70
2022/11/26 01:00:17;;;;;;;6.68;1.70;;;;;;;;;;5055756;28;20120;-70
2022/11/26 01:02:43;;;;;;;3.70;1.88;;;;;;;;;;5055716;28;20039;-70
2022/11/26 01:05:10;;;;;;;6.05;1.60;;;;;;;;;;5055174;28;20049;-70
2022/11/26 01:07:36;;;;;;;6.28;1.80;;;;;;;;;;5054967;28;20119;-70
2022/11/26 01:10:03;;;;;;;8.48;1.88;;;;;;;;;;5054045;28;20049;-70
2022/11/26 01:12:29;;;;;;;4.03;1.55;;;;;;;;;;5054874;28;20037;-70
2022/11/26 01:14:55;;;;;;;8.93;2.10;;;;;;;;;;5055138;28;20080;-70
2022/11/26 01:17:21;;;;;;;9.10;2.20;;;;;;;;;;5054988;28;20043;-70
2022/11/26 01:19:47;;;;;;;7.10;1.65;;;;;;;;;;5054928;28;20119;-70
2022/11/26 01:22:19;;;;;;;8.68;1.90;;;;;;;;;;5055047;28;20036;-70
2022/11/26 01:24:45;;;;;;;7.55;1.58;;;;;;;;;;5055270;28;20102;-70
2022/11/26 01:27:12;;;;;;;8.38;1.90;;;;;;;;;;5054485;28;20458;-70
2022/11/26 01:29:38;;;;;;;9.48;1.90;;;;;;;;;;5055000;28;20090;-69
2022/11/26 01:32:04;;;;;;;6.43;1.67;;;;;;;;;;5054881;28;20040;-70
2022/11/26 01:34:30;;;;;;;8.25;2.35;;;;;;;;;;5055052;28;20053;-70
2022/11/26 01:36:57;;;;;;;8.35;2.50;;;;;;;;;;5054511;28;20071;-70
2022/11/26 01:39:23;;;;;;;11.00;2.35;;;;;;;;;;5054395;28;20091;-70
2022/11/26 01:42:05;;;;;;;6.93;1.98;;;;;;;;;;5054575;28;20044;-70
2022/11/26 01:44:32;;;;;;;8.60;2.50;;;;;;;;;;5055159;28;20041;-70
2022/11/26 01:46:59;;;;;;;7.70;2.65;;;;;;;;;;5053947;28;20076;-70
2022/11/26 01:49:32;;;;;;;5.45;1.90;;;;;;;;;;5052978;28;20094;-70
2022/11/26 01:52:01;;;;;;;7.97;2.22;;;;;;;;;;5053430;28;20049;-70
2022/11/26 01:54:27;;;;;;;5.40;2.17;;;;;;;;;;5054154;28;20071;-69
2022/11/26 01:56:55;;;;;;;6.70;2.25;;;;;;;;;;5053707;28;20041;-70
2022/11/26 01:59:25;;;;;;;9.25;2.10;;;;;;;;;;5054270;28;20531;-70
2022/11/26 02:01:52;;;;;;;9.60;2.90;;;;;;;;;;5054374;28;20037;-70
2022/11/26 02:04:23;;;;;;;6.72;2.03;;;;;;;;;;5053930;28;20565;-70
2022/11/26 02:06:49;;;;;;;9.95;2.28;;;;;;;;;;5052297;28;20044;-70
2022/11/26 02:09:16;;;;;;;8.20;2.17;;;;;;;;;;5052378;28;20141;-70
2022/11/26 02:11:42;;;;;;;8.07;1.75;;;;;;;;;;5052196;28;20124;-70
2022/11/26 02:14:11;;;;;;;6.50;1.75;;;;;;;;;;5052629;28;20049;-70
2022/11/26 02:16:51;;;;;;;6.65;2.28;;;;;;;;;;5054889;28;20048;-70
2022/11/26 02:19:41;;;;;;;6.20;1.85;;;;;;;;;;5056812;28;20120;-70
2022/11/26 02:22:10;;;;;;;4.15;1.90;;;;;;;;;;5058633;28;20122;-70
2022/11/26 02:24:48;;;;;;;8.13;2.00;;;;;;;;;;5058307;28;20131;-69
2022/11/26 02:27:34;;;;;;;7.57;1.85;;;;;;;;;;5057734;28;20057;-70
2022/11/26 02:30:08;;;;;;;5.25;1.65;;;;;;;;;;5058746;28;20086;-70
2022/11/26 02:32:43;;;;;;;9.55;2.13;;;;;;;;;;5058419;28;20514;-70
2022/11/26 02:35:15;;;;;;;7.72;1.95;;;;;;;;;;5057329;28;20047;-70
2022/11/26 02:37:49;;;;;;;8.57;1.92;;;;;;;;;;5057890;28;20094;-70
2022/11/26 02:40:15;;;;;;;9.63;2.03;;;;;;;;;;5058234;28;20073;-70
2022/11/26 02:42:42;;;;;;;5.43;1.33;;;;;;;;;;5058000;28;20045;-70
2022/11/26 02:45:10;;;;;;;7.45;1.85;;;;;;;;;;5058494;28;20045;-70
2022/11/26 02:47:38;;;;;;;10.55;2.03;;;;;;;;;;5057870;28;20045;-70
2022/11/26 02:50:08;;;;;;;6.20;1.67;;;;;;;;;;5058487;28;20045;-70
2022/11/26 02:52:34;;;;;;;9.90;2.13;;;;;;;;;;5057992;28;20032;-70
2022/11/26 02:55:01;;;;;;;7.90;1.80;;;;;;;;;;5057954;28;20094;-70
2022/11/26 02:57:30;;;;;;;7.97;1.83;;;;;;;;;;5057392;28;20568;-70
2022/11/26 02:59:56;;;;;;;6.80;1.88;;;;;;;;;;5056749;28;20395;-69
2022/11/26 03:02:28;;;;;;;10.32;1.88;;;;;;;;;;5057630;28;20484;-70
2022/11/26 03:04:56;;;;;;;6.28;1.88;;;;;;;;;;5057892;28;20072;-70
2022/11/26 03:07:23;;;;;;;5.80;1.90;;;;;;;;;;5057787;28;20045;-70
2022/11/26 03:09:53;;;;;;;8.70;2.42;;;;;;;;;;5057564;28;20044;-70
2022/11/26 03:12:19;;;;;;;6.55;1.75;;;;;;;;;;5057406;28;20033;-70
2022/11/26 03:14:46;;;;;;;6.75;1.45;;;;;;;;;;5057460;28;20041;-70
2022/11/26 03:17:12;;;;;;;7.60;1.90;;;;;;;;;;5057574;28;20115;-70
2022/11/26 03:19:38;;;;;;;6.78;1.85;;;;;;;;;;5057677;28;20116;-70
2022/11/26 03:22:05;;;;;;;7.50;1.98;;;;;;;;;;5057260;28;20044;-70
2022/11/26 03:24:32;;;;;;;3.78;1.30;;;;;;;;;;5057182;28;20518;-70
2022/11/26 03:26:58;;;;;;;4.07;1.40;;;;;;;;;;5056516;28;20521;-70
2022/11/26 03:29:24;;;;;;;7.07;1.85;;;;;;;;;;5057318;28;20045;-70
2022/11/26 03:31:50;;;;;;;5.00;1.90;;;;;;;;;;5057678;28;20044;-70
2022/11/26 03:34:17;;;;;;;7.30;1.90;;;;;;;;;;5057126;28;20064;-70
2022/11/26 03:36:43;;;;;;;5.25;1.67;;;;;;;;;;5057052;28;20041;-70
2022/11/26 03:39:09;;;;;;;8.05;1.70;;;;;;;;;;5056703;28;20530;-70
2022/11/26 03:41:35;;;;;;;7.30;1.80;;;;;;;;;;5056468;28;20049;-70
2022/11/26 03:44:01;;;;;;;6.65;1.95;;;;;;;;;;5056777;28;20049;-70
2022/11/26 03:46:27;;;;;;;6.72;1.50;;;;;;;;;;5057119;28;20044;-70
2022/11/26 03:48:53;;;;;;;7.57;1.50;;;;;;;;;;5057139;28;20051;-70
2022/11/26 03:51:20;;;;;;;8.13;1.70;;;;;;;;;;5056445;28;20396;-70
2022/11/26 03:53:46;;;;;;;7.63;1.85;;;;;;;;;;5056759;28;20040;-70
2022/11/26 03:56:12;;;;;;;7.80;1.48;;;;;;;;;;5056214;28;20040;-70
2022/11/26 03:58:38;;;;;;;6.57;1.67;;;;;;;;;;5056317;28;20488;-70
2022/11/26 04:01:09;;;;;;;7.35;2.00;;;;;;;;;;5057189;28;20056;-70
2022/11/26 04:03:35;;;;;;;2.80;1.83;;;;;;;;;;5056392;28;20037;-70
2022/11/26 04:06:02;;;;;;;5.55;1.83;;;;;;;;;;5056489;28;20048;-70
2022/11/26 04:08:28;;;;;;;6.30;1.55;;;;;;;;;;5056426;28;20048;-70
2022/11/26 04:10:54;;;;;;;5.20;1.70;;;;;;;;;;5056278;28;20073;-70
2022/11/26 04:13:20;;;;;;;5.90;1.70;;;;;;;;;;5056310;28;20043;-70
2022/11/26 04:15:47;;;;;;;6.90;1.58;;;;;;;;;;5056285;28;20041;-70
2022/11/26 04:18:14;;;;;;;3.50;1.63;;;;;;;;;;5056364;28;20068;-70
2022/11/26 04:20:40;;;;;;;10.05;1.80;;;;;;;;;;5056838;28;20131;-70
2022/11/26 04:23:06;;;;;;;5.70;1.60;;;;;;;;;;5056128;28;20041;-70
2022/11/26 04:25:32;;;;;;;5.78;2.17;;;;;;;;;;5055374;28;20095;-70
2022/11/26 04:27:58;;;;;;;3.78;1.17;;;;;;;;;;5055781;28;20033;-70
2022/11/26 04:30:25;;;;;;;3.10;1.17;;;;;;;;;;5056370;28;20043;-69
2022/11/26 04:32:51;;;;;;;8.00;1.88;;;;;;;;;;5055703;28;20129;-70
2022/11/26 04:35:17;;;;;;;3.90;1.48;;;;;;;;;;5055640;28;20156;-70
2022/11/26 04:37:43;;;;;;;4.95;1.52;;;;;;;;;;5055369;28;20426;-70
2022/11/26 04:40:10;;;;;;;4.25;1.65;;;;;;;;;;5055474;28;20511;-70
2022/11/26 04:42:36;;;;;;;4.28;1.42;;;;;;;;;;5055478;28;20068;-70
2022/11/26 04:45:02;;;;;;;6.93;1.63;;;;;;;;;;5055652;28;20047;-69
2022/11/26 04:47:28;;;;;;;10.20;1.70;;;;;;;;;;5055702;28;20075;-70
2022/11/26 04:49:54;;;;;;;5.32;1.75;;;;;;;;;;5056252;28;20041;-70
2022/11/26 04:52:20;;;;;;;6.07;1.85;;;;;;;;;;5055599;28;20044;-70
2022/11/26 04:54:46;;;;;;;4.03;1.55;;;;;;;;;;5055814;28;20051;-70
2022/11/26 04:57:13;;;;;;;6.78;1.90;;;;;;;;;;5055330;28;20044;-70
2022/11/26 04:59:40;;;;;;;6.35;1.63;;;;;;;;;;5055824;28;20124;-70
2022/11/26 05:02:06;;;;;;;7.65;2.13;;;;;;;;;;5055364;28;20029;-69
2022/11/26 05:04:32;;;;;;;6.55;2.05;;;;;;;;;;5055317;28;20044;-70
2022/11/26 05:06:58;;;;;;;8.13;1.90;;;;;;;;;;5055020;28;20045;-70
2022/11/26 05:09:24;;;;;;;4.65;1.45;;;;;;;;;;5054998;28;20095;-70
2022/11/26 05:11:50;;;;;;;5.45;1.70;;;;;;;;;;5054756;28;20045;-70
2022/11/26 05:14:17;;;;;;;5.65;1.85;;;;;;;;;;5054848;28;20455;-70
2022/11/26 05:16:43;;;;;;;5.45;1.42;;;;;;;;;;5055146;28;20090;-70
2022/11/26 05:19:10;;;;;;;5.82;1.75;;;;;;;;;;5055722;28;20476;-70
2022/11/26 05:21:36;;;;;;;2.95;1.60;;;;;;;;;;5055074;28;20097;-70
2022/11/26 05:24:02;;;;;;;7.53;1.90;;;;;;;;;;5054899;28;20057;-70
2022/11/26 05:26:28;;;;;;;4.55;1.60;;;;;;;;;;5055185;28;20140;-70
2022/11/26 05:28:54;;;;;;;5.60;1.92;;;;;;;;;;5055809;28;20044;-70
2022/11/26 05:31:20;;;;;;;4.82;1.77;;;;;;;;;;5055450;28;20037;-69
2022/11/26 05:33:46;;;;;;;3.75;1.17;;;;;;;;;;5054868;28;20048;-70
2022/11/26 05:36:12;;;;;;;4.85;1.50;;;;;;;;;;5055109;28;20043;-70
2022/11/26 05:38:38;;;;;;;6.15;1.60;;;;;;;;;;5054779;28;20128;-70
2022/11/26 05:41:04;;;;;;;8.63;2.03;;;;;;;;;;5055216;28;20040;-69
2022/11/26 05:43:31;;;;;;;4.63;1.98;;;;;;;;;;5054985;28;20051;-70
2022/11/26 05:45:57;;;;;;;8.95;2.05;;;;;;;;;;5055521;28;20037;-69
2022/11/26 05:48:23;;;;;;;10.27;1.90;;;;;;;;;;5055104;28;20044;-70
2022/11/26 05:50:56;;;;;;;5.88;1.80;;;;;;;;;;5055449;28;20037;-70
2022/11/26 05:53:22;;;;;;;7.95;1.73;;;;;;;;;;5054686;28;20488;-69
2022/11/26 05:55:48;;;;;;;5.15;1.50;;;;;;;;;;5054400;28;20119;-70
2022/11/26 05:58:14;;;;;;;6.13;1.50;;;;;;;;;;5054797;28;20513;-70
2022/11/26 06:00:40;;;;;;;9.55;2.05;;;;;;;;;;5054803;28;20076;-70
2022/11/26 06:03:06;;;;;;;6.03;1.70;;;;;;;;;;5054731;28;20044;-70
2022/11/26 06:05:32;;;;;;;5.65;1.90;;;;;;;;;;5054343;28;20072;-70
2022/11/26 06:07:58;;;;;;;6.50;2.15;;;;;;;;;;5054690;28;20041;-69
2022/11/26 06:10:25;;;;;;;5.55;1.85;;;;;;;;;;5054987;28;20079;-69
2022/11/26 06:12:51;;;;;;;9.40;1.85;;;;;;;;;;5054800;28;20045;-70
2022/11/26 06:15:17;;;;;;;5.13;1.35;;;;;;;;;;5054648;28;20037;-70
2022/11/26 06:17:43;;;;;;;5.90;1.55;;;;;;;;;;5054924;28;20053;-70
2022/11/26 06:20:10;;;;;;;6.57;1.60;;;;;;;;;;5054901;28;20506;-69
2022/11/26 06:22:37;;;;;;;9.38;1.88;;;;;;;;;;5054597;28;20040;-70
2022/11/26 06:25:03;;;;;;;6.15;1.67;;;;;;;;;;5054046;28;20095;-70
2022/11/26 06:27:32;;;;;;;7.20;1.80;;;;;;;;;;5054681;28;20040;-70
2022/11/26 06:29:58;;;;;;;6.60;1.70;;;;;;;;;;5053622;28;20048;-70
2022/11/26 06:32:24;;;;;;;5.72;1.40;;;;;;;;;;5054441;28;20048;-70
2022/11/26 06:34:50;;;;;;;10.18;2.10;;;;;;;;;;5054211;28;20072;-70
2022/11/26 06:37:16;;;;;;;7.35;1.80;;;;;;;;;;5054099;28;20037;-70
2022/11/26 06:39:42;;;;;;;5.20;1.90;;;;;;;;;;5054401;28;20396;-70
2022/11/26 06:42:08;;;;;;;7.50;2.00;;;;;;;;;;5053912;28;20068;-70
2022/11/26 06:44:35;;;;;;;4.07;1.52;;;;;;;;;;5053685;28;20512;-70
2022/11/26 06:47:01;;;;;;;8.85;2.20;;;;;;;;;;5053762;28;20040;-70
2022/11/26 06:49:27;;;;;;;5.32;1.70;;;;;;;;;;5054176;28;20049;-70
2022/11/26 06:51:54;;;;;;;7.38;1.85;;;;;;;;;;5053976;28;20048;-70
2022/11/26 06:54:20;;;;;;;8.82;1.92;;;;;;;;;;5053968;28;20049;-70
2022/11/26 06:56:46;;;;;;;7.15;2.00;;;;;;;;;;5053790;28;20041;-69
2022/11/26 06:59:13;;;;;;;5.75;1.60;;;;;;;;;;5054552;28;20570;-70
2022/11/26 07:01:39;;;;;;;5.50;2.28;;;;;;;;;;5054356;28;20063;-70
2022/11/26 07:04:05;;;;;;;5.65;1.38;;;;;;;;;;5057520;28;20128;-70
2022/11/26 07:06:32;;;;;;;3.08;1.52;;;;;;;;;;5057621;28;20123;-70
2022/11/26 07:09:03;;;;;;;6.03;1.90;;;;;;;;;;5057643;28;20080;-70
2022/11/26 07:11:29;;;;;;;6.00;1.38;;;;;;;;;;5056809;28;20033;-70
2022/11/26 07:13:55;;;;;;;3.03;1.20;;;;;;;;;;5057496;28;20055;-70
2022/11/26 07:16:21;;;;;;;10.70;2.13;;;;;;;;;;5057460;28;20071;-69
2022/11/26 07:18:52;;;;;;;5.55;1.13;;;;;;;;;;5057509;28;20116;-69
2022/11/26 07:21:19;;;;;;;4.95;1.20;;;;;;;;;;5057120;28;20114;-70
2022/11/26 07:23:45;;;;;;;4.13;1.45;;;;;;;;;;5056962;28;20045;-70
2022/11/26 07:26:12;;;;;;;4.95;1.13;;;;;;;;;;5057250;28;20518;-70
2022/11/26 07:28:38;;;;;;;8.75;1.75;;;;;;;;;;5057219;28;20090;-70
2022/11/26 07:31:06;;;;;;;5.15;1.23;;;;;;;;;;5057670;28;20496;-70
2022/11/26 07:33:32;;;;;;;5.10;0.98;;;;;;;;;;5057414;28;20129;-70
2022/11/26 07:35:59;;;;;;;4.22;1.08;;;;;;;;;;5057378;28;20041;-69
2022/11/26 07:38:26;;;;;;;6.20;1.40;;;;;;;;;;5057222;28;20040;-70
2022/11/26 07:40:52;;;;;;;4.57;1.23;;;;;;;;;;5057068;28;20052;-70
2022/11/26 07:43:18;;;;;;;8.63;2.50;;;;;;;;;;5057126;28;20041;-69
2022/11/26 07:45:44;;;;;;;7.13;1.90;;;;;;;;;;5057120;28;20045;-70
2022/11/26 07:48:10;;;;;;;5.40;1.70;;;;;;;;;;5057088;28;20092;-70
2022/11/26 07:50:36;;;;;;;5.90;1.90;;;;;;;;;;5057405;28;20122;-70
2022/11/26 07:53:02;;;;;;;4.97;1.60;;;;;;;;;;5056891;28;20033;-70
2022/11/26 07:55:29;;;;;;;5.35;1.58;;;;;;;;;;5056870;28;20041;-70
2022/11/26 07:57:55;;;;;;;3.72;1.40;;;;;;;;;;5056800;28;20045;-70
2022/11/26 08:00:21;;;;;;;5.40;1.60;;;;;;;;;;5057531;28;20077;-70
2022/11/26 08:02:47;;;;;;;4.72;1.60;;;;;;;;;;5056593;28;20119;-70
2022/11/26 08:05:13;;;;;;;4.80;1.10;;;;;;;;;;5057014;28;20045;-70
2022/11/26 08:07:40;;;;;;;5.97;1.40;;;;;;;;;;5056756;28;20041;-70
2022/11/26 08:10:06;;;;;;;3.50;1.30;;;;;;;;;;5057341;28;20116;-70
2022/11/26 08:12:32;;;;;;;6.10;1.38;;;;;;;;;;5056091;28;20044;-70
2022/11/26 08:14:58;;;;;;;5.50;1.35;;;;;;;;;;5055834;28;20045;-70
2022/11/26 08:17:24;;;;;;;4.95;1.40;;;;;;;;;;5056593;28;20044;-70
2022/11/26 08:19:50;;;;;;;6.07;1.35;;;;;;;;;;5057162;28;20052;-70
2022/11/26 08:22:16;;;;;;;8.13;1.30;;;;;;;;;;5056534;28;20041;-70
2022/11/26 08:24:42;;;;;;;5.72;1.50;;;;;;;;;;5056179;28;20107;-70
2022/11/26 08:27:09;;;;;;;5.82;1.58;;;;;;;;;;5056013;28;20589;-70
2022/11/26 08:29:38;;;;;;;5.88;1.63;;;;;;;;;;5056275;28;20504;-70
2022/11/26 08:32:04;;;;;;;7.63;1.55;;;;;;;;;;5056496;28;20541;-70
2022/11/26 08:34:30;;;;;;;3.25;1.05;;;;;;;;;;5056192;28;20098;-70
2022/11/26 08:36:57;;;;;;;7.00;1.35;;;;;;;;;;5055518;28;20057;-70
2022/11/26 08:39:23;;;;;;;5.03;1.33;;;;;;;;;;5056166;28;20045;-70
2022/11/26 08:41:50;;;;;;;4.65;1.60;;;;;;;;;;5055634;28;20037;-70
2022/11/26 08:44:16;;;;;;;8.30;1.42;;;;;;;;;;5055891;28;20044;-70
2022/11/26 08:46:42;;;;;;;4.85;1.65;;;;;;;;;;5055725;28;20041;-70
2022/11/26 08:49:10;;;;;;;8.18;1.25;;;;;;;;;;5054919;28;20120;-70
2022/11/26 08:51:37;;;;;;;9.40;1.60;;;;;;;;;;5053778;28;20036;-70
2022/11/26 08:54:03;;;;;;;7.15;1.45;;;;;;;;;;5055035;28;20171;-70
2022/11/26 08:56:29;;;;;;;6.18;1.90;;;;;;;;;;5054825;28;20037;-70
2022/11/26 08:58:56;;;;;;;9.50;2.00;;;;;;;;;;5054053;28;20048;-70
2022/11/26 09:01:26;;;;;;;5.80;1.80;;;;;;;;;;5053781;28;20095;-70
2022/11/26 09:03:53;;;;;;;8.82;2.35;;;;;;;;;;5054012;28;20045;-70
2022/11/26 09:06:20;;;;;;;6.80;2.47;;;;;;;;;;5054871;28;20514;-70
2022/11/26 09:11:33;;;;;;;5.80;2.15;;;;;;;;;;5054078;28;20553;-70
2022/11/26 09:13:59;;;;;;;8.25;2.17;;;;;;;;;;5054559;28;20036;-70
2022/11/26 09:16:25;;;;;;;10.45;2.45;;;;;;;;;;5054137;28;20076;-70
2022/11/26 09:18:52;;;;;;;6.80;2.20;;;;;;;;;;5054778;28;20123;-70
2022/11/26 09:21:19;;;;;;;4.75;2.00;;;;;;;;;;5054036;28;20065;-70
2022/11/26 09:23:45;;;;;;;6.78;2.13;;;;;;;;;;5053944;28;20040;-70
2022/11/26 09:26:11;;;;;;;5.07;1.75;;;;;;;;;;5054327;28;20136;-70
2022/11/26 09:28:38;;;;;;;4.30;1.90;;;;;;;;;;5054481;28;20519;-69
2022/11/26 09:31:04;;;;;;;7.85;1.40;;;;;;;;;;5054471;28;20044;-69
2022/11/26 09:33:31;;;;;;;5.25;1.60;;;;;;;;;;5050610;28;20526;-69
2022/11/26 09:36:07;;;;;;;4.03;1.45;;;;;;;;;;5035235;28;20073;-69
2022/11/26 09:38:33;;;;;;;3.38;1.42;;;;;;;;;;5048010;28;20040;-69
2022/11/26 09:41:08;;;;;;;6.00;1.20;;;;;;;;;;5062223;28;20041;-70
2022/11/26 09:43:42;;;;;;;4.07;1.33;;;;;;;;;;5074190;28;20044;-69
2022/11/26 09:46:09;;;;;;;5.45;1.80;;;;;;;;;;5055438;28;20081;-70
2022/11/26 09:48:36;;;;;;;4.53;1.90;;;;;;;;;;5054586;28;20049;-69
2022/11/26 09:51:06;;;;;;;5.95;2.25;;;;;;;;;;5053309;28;20115;-69
2022/11/26 09:53:35;;;;;;;7.28;2.40;;;;;;;;;;5057029;28;20052;-70
2022/11/26 09:56:02;;;;;;;4.70;1.60;;;;;;;;;;5056209;28;20041;-70
2022/11/26 09:58:28;;;;;;;6.70;2.05;;;;;;;;;;5053898;28;20037;-69
2022/11/26 10:00:56;;;;;;;5.47;2.00;;;;;;;;;;5054208;28;20047;-69
2022/11/26 10:03:24;;;;;;;4.68;1.20;;;;;;;;;;5059573;28;20033;-70
2022/11/26 10:05:57;;;;;;;3.42;1.23;;;;;;;;;;5055761;28;20086;-69
2022/11/26 10:08:32;;;;;;;3.75;1.42;;;;;;;;;;5054951;28;20120;-69
2022/11/26 10:11:04;;;;;;;5.70;1.60;;;;;;;;;;5038509;28;20038;-69
2022/11/26 10:13:41;;;;;;;5.43;1.85;;;;;;;;;;5074584;28;20044;-70
2022/11/26 10:16:14;;;;;;;4.47;1.50;;;;;;;;;;5074740;28;20071;-69
2022/11/26 10:18:43;;;;;;;4.10;1.70;;;;;;;;;;5068971;28;20106;-70
2022/11/26 10:21:13;;;;;;;6.80;2.50;;;;;;;;;;5046076;28;20507;-70
2022/11/26 10:23:44;;;;;;;3.63;1.33;;;;;;;;;;5051353;28;20436;-70
2022/11/26 10:26:22;;;;;;;3.60;1.33;;;;;;;;;;5053858;28;20056;-70
2022/11/26 10:28:50;;;;;;;7.22;1.50;;;;;;;;;;5048764;28;20094;-70
2022/11/26 10:31:19;;;;;;;4.72;1.67;;;;;;;;;;5056836;28;20045;-70
2022/11/26 10:33:56;;;;;;;3.20;1.73;;;;;;;;;;5050186;28;20123;-70
2022/11/26 10:36:24;;;;;;;4.93;1.33;;;;;;;;;;5047141;28;20040;-70
2022/11/26 10:38:51;;;;;;;1.98;1.35;;;;;;;;;;5056367;28;20070;-71
2022/11/26 10:41:17;;;;;;;7.60;2.33;;;;;;;;;;5054153;28;20559;-70
2022/11/26 10:43:44;;;;;;;5.55;1.55;;;;;;;;;;5055620;28;20044;-70
2022/11/26 10:46:29;;;;;;;4.57;1.55;;;;;;;;;;5057385;28;20099;-70
2022/11/26 10:49:14;;;;;;;5.10;1.60;;;;;;;;;;5057092;28;20076;-70
2022/11/26 10:51:40;;;;;;;4.30;1.60;;;;;;;;;;5057124;28;20041;-70
2022/11/26 10:54:18;;;;;;;3.40;1.25;;;;;;;;;;5058172;28;20076;-70
2022/11/26 10:56:46;;;;;;;4.05;1.77;;;;;;;;;;5063172;28;20036;-70
2022/11/26 10:59:18;;;;;;;3.85;1.15;;;;;;;;;;5063436;28;20111;-70
2022/11/26 11:01:44;;;;;;;6.10;1.75;;;;;;;;;;5053756;28;20049;-70
2022/11/26 11:04:27;;;;;;;6.07;1.73;;;;;;;;;;5067736;28;20052;-70
2022/11/26 11:06:53;;;;;;;3.92;1.55;;;;;;;;;;5056651;28;20045;-70
2022/11/26 11:09:33;;;;;;;5.90;1.67;;;;;;;;;;5058183;28;20041;-70
2022/11/26 11:12:11;;;;;;;6.68;1.83;;;;;;;;;;5056200;28;20037;-70
2022/11/26 11:14:43;;;;;;;7.05;2.00;;;;;;;;;;5056058;28;20041;-70
2022/11/26 11:17:29;;;;;;;5.93;1.40;;;;;;;;;;5055773;28;20555;-71
2022/11/26 11:20:03;;;;;;;4.80;1.60;;;;;;;;;;5056714;28;20048;-70
2022/11/26 11:22:29;;;;;;;3.83;1.10;;;;;;;;;;5055797;28;20032;-70
2022/11/26 11:24:57;;;;;;;4.07;1.30;;;;;;;;;;5056043;28;20053;-70
2022/11/26 11:27:37;;;;;;;4.22;1.50;;;;;;;;;;5055974;28;20041;-70
2022/11/26 11:30:03;;;;;;;4.38;1.35;;;;;;;;;;5056420;28;20040;-70
2022/11/26 11:32:37;;;;;;;3.22;1.15;;;;;;;;;;5053304;28;20050;-70
2022/11/26 11:35:20;;;;;;;3.60;1.20;;;;;;;;;;5057435;28;20067;-71
2022/11/26 11:37:48;;;;;;;3.72;1.80;;;;;;;;;;5050078;28;20563;-70
2022/11/26 11:40:24;;;;;;;2.83;1.17;;;;;;;;;;5046404;28;20125;-70
2022/11/26 11:42:52;;;;;;;4.50;1.95;;;;;;;;;;5054985;28;20441;-71
2022/11/26 11:45:22;;;;;;;7.32;2.85;;;;;;;;;;5055830;28;20091;-72
2022/11/26 11:47:51;;;;;;;5.18;1.63;;;;;;;;;;5055416;28;20044;-69
2022/11/26 11:50:33;;;;;;;10.10;2.47;;;;;;;;;;5054334;28;20040;-70
2022/11/26 11:53:18;;;;;;;6.97;2.90;;;;;;;;;;5051103;28;20504;-71
2022/11/26 11:55:44;;;;;;;5.35;1.67;;;;;;;;;;5053851;28;20040;-71
2022/11/26 11:58:28;;;;;;;5.57;1.70;;;;;;;;;;5054513;28;20045;-71
2022/11/26 12:00:59;;;;;;;4.93;1.75;;;;;;;;;;5054714;28;20119;-71
2022/11/26 12:03:37;;;;;;;4.03;2.05;;;;;;;;;;5052379;28;20053;-70
2022/11/26 12:06:11;;;;;;;4.30;1.88;;;;;;;;;;5054508;28;20080;-69
2022/11/26 12:08:43;;;;;;;6.18;1.67;;;;;;;;;;5054867;28;20044;-71
2022/11/26 12:11:28;;;;;;;5.40;2.15;;;;;;;;;;5054341;28;20094;-71
2022/11/26 12:14:02;;;;;;;7.22;4.15;;;;;;;;;;5053173;28;20040;-70
2022/11/26 12:16:30;;;;;;;6.38;2.53;;;;;;;;;;5053847;28;20049;-70
2022/11/26 12:19:01;;;;;;;6.03;3.90;;;;;;;;;;5054060;28;20071;-70
2022/11/26 12:21:34;;;;;;;5.97;2.53;;;;;;;;;;5054899;28;20047;-70
2022/11/26 12:24:06;;;;;;;6.43;2.15;;;;;;;;;;5054165;28;20065;-70
2022/11/26 12:26:34;;;;;;;7.93;3.35;;;;;;;;;;5055286;28;20076;-70
2022/11/26 12:29:03;;;;;;;6.03;2.42;;;;;;;;;;5055133;28;20049;-70
2022/11/26 12:31:36;;;;;;;6.97;2.60;;;;;;;;;;5054875;28;20520;-70
2022/11/26 12:34:05;;;;;;;12.77;3.70;;;;;;;;;;5055186;28;20072;-70
2022/11/26 12:36:41;;;;;;;8.35;3.00;;;;;;;;;;5055091;28;20071;-70
2022/11/26 12:39:27;;;;;;;6.60;2.78;;;;;;;;;;5055839;28;20037;-70
2022/11/26 12:42:00;;;;;;;8.43;4.88;;;;;;;;;;5053637;28;20049;-70
2022/11/26 12:44:32;;;;;;;12.82;4.78;;;;;;;;;;5055725;28;20060;-71
2022/11/26 12:47:11;;;;;;;7.63;2.78;;;;;;;;;;5061059;28;20076;-69
2022/11/26 12:50:01;;;;;;;4.53;2.30;;;;;;;;;;5055019;28;20515;-69
2022/11/26 12:52:29;;;;;;;4.55;2.17;;;;;;;;;;5028531;28;20037;-68
2022/11/26 12:55:13;;;;;;;6.47;2.50;;;;;;;;;;5054433;28;20114;-68
2022/11/26 12:57:45;;;;;;;3.85;1.63;;;;;;;;;;5061948;28;20037;-69
2022/11/26 13:00:18;;;;;;;4.32;1.50;;;;;;;;;;5062449;28;20041;-70
2022/11/26 13:02:47;;;;;;;4.35;1.88;;;;;;;;;;5055127;28;20116;-69
2022/11/26 13:05:18;;;;;;;6.78;3.13;;;;;;;;;;5054023;28;20087;-68
2022/11/26 13:07:53;;;;;;;4.38;2.00;;;;;;;;;;5051644;28;20041;-68
2022/11/26 13:10:19;;;;;;;6.30;1.80;;;;;;;;;;5052247;28;20041;-69
2022/11/26 13:13:05;;;;;;;6.35;1.95;;;;;;;;;;5053027;28;20044;-69
2022/11/26 13:15:36;;;;;;;6.05;2.08;;;;;;;;;;5046824;28;20037;-70
2022/11/26 13:18:03;;;;;;;3.40;1.40;;;;;;;;;;5050328;28;20049;-69
2022/11/26 13:20:30;;;;;;;8.18;3.47;;;;;;;;;;5052489;28;20174;-69
2022/11/26 13:23:31;;;;;;;9.20;4.25;;;;;;;;;;5053817;28;20538;-69
2022/11/26 13:26:18;;;;;;;31.50;20.48;;;;;;;;;;5030521;28;20049;-69
2022/11/26 13:28:52;;;;;;;122.75;67.93;;;;;;;;;;4999414;28;20046;-70
2022/11/26 13:31:28;;;;;;;341.58;168.82;;;;;;;;;;5052204;28;20514;-71
2022/11/26 13:34:13;;;;;;;201.27;121.93;;;;;;;;;;5051109;28;20119;-72
2022/11/26 13:36:55;;;;;;;9.27;5.30;;;;;;;;;;5049606;28;20044;-74
2022/11/26 13:39:42;;;;;;;25.25;18.55;;;;;;;;;;5051859;28;20496;-71
2022/11/26 13:42:11;;;;;;;34.97;29.33;;;;;;;;;;5053275;28;20095;-72
2022/11/26 13:44:56;;;;;;;20.65;14.25;;;;;;;;;;5052787;28;20045;-72
2022/11/26 13:47:24;;;;;;;16.48;12.30;;;;;;;;;;5053129;28;20036;-71
2022/11/26 13:49:55;;;;;;;23.50;16.65;;;;;;;;;;5053214;28;20048;-72
2022/11/26 13:52:24;;;;;;;25.88;14.95;;;;;;;;;;5052179;28;20116;-72
2022/11/26 13:55:04;;;;;;;20.90;13.77;;;;;;;;;;5052864;28;20055;-71
2022/11/26 13:57:38;;;;;;;12.40;7.63;;;;;;;;;;5053109;28;20052;-72
2022/11/26 14:00:05;;;;;;;16.48;9.32;;;;;;;;;;5051601;28;20041;-72
2022/11/26 14:02:35;;;;;;;12.73;8.50;;;;;;;;;;5052926;28;20115;-72
2022/11/26 14:05:03;;;;;;;24.95;17.30;;;;;;;;;;5052519;28;20040;-72
2022/11/26 14:07:29;;;;;;;9.85;4.47;;;;;;;;;;5053628;28;20114;-72
2022/11/26 14:09:59;;;;;;;82.88;61.22;;;;;;;;;;5051963;28;20049;-71
2022/11/26 14:12:44;;;;;;;8.23;4.30;;;;;;;;;;5051426;28;20044;-70
2022/11/26 14:15:28;;;;;;;45.83;29.40;;;;;;;;;;5052916;28;20068;-71
2022/11/26 14:17:55;;;;;;;22.30;13.50;;;;;;;;;;5052422;28;20125;-70
2022/11/26 14:20:21;;;;;;;19.92;10.23;;;;;;;;;;5052832;28;20045;-70
2022/11/26 14:22:47;;;;;;;20.23;9.57;;;;;;;;;;5052270;28;20041;-70
2022/11/26 14:25:14;;;;;;;16.30;8.55;;;;;;;;;;5052892;28;20053;-71
2022/11/26 14:27:41;;;;;;;12.65;5.93;;;;;;;;;;5052369;28;20051;-70
2022/11/26 14:30:08;;;;;;;10.43;7.00;;;;;;;;;;5053543;28;20041;-71
2022/11/26 14:32:53;;;;;;;9.77;7.05;;;;;;;;;;5053412;28;20118;-72
2022/11/26 14:35:25;;;;;;;6.68;3.10;;;;;;;;;;5052618;28;20041;-71
2022/11/26 14:37:52;;;;;;;6.88;2.50;;;;;;;;;;5052458;28;20087;-71
2022/11/26 14:40:21;;;;;;;12.40;5.35;;;;;;;;;;5052920;28;20033;-71
2022/11/26 14:42:48;;;;;;;11.30;4.82;;;;;;;;;;5050732;28;20044;-71
2022/11/26 14:45:18;;;;;;;13.70;7.00;;;;;;;;;;5051468;28;20068;-71
2022/11/26 14:47:46;;;;;;;12.88;8.18;;;;;;;;;;5051994;28;20044;-72
2022/11/26 14:50:15;;;;;;;4.55;1.88;;;;;;;;;;5052126;28;20047;-71
2022/11/26 14:52:42;;;;;;;5.15;2.10;;;;;;;;;;5051869;28;20044;-71
2022/11/26 14:55:17;;;;;;;11.27;5.43;;;;;;;;;;5052749;28;20048;-71